Time;durP1;ratioP1;P1;durP2;ratioP2;P2;SDS_P1;SDS_P2;PMS_P1;PMS_P2;Temp;Humidity;BMP_temperature;BMP_pressure;BME280_temperature;BME280_humidity;BME280_pressure;Samples;Min_cycle;Max_cycle;Signal;HPM_P1;HPM_P2
2022/07/02 00:01:23;;;;;;;9.55;4.32;;;;;;;;;;5050693;28;20075;-78
2022/07/02 00:03:53;;;;;;;7.45;4.53;;;;;;;;;;5052089;28;20100;-77
2022/07/02 00:06:20;;;;;;;7.70;4.72;;;;;;;;;;5052009;28;20431;-78
2022/07/02 00:08:46;;;;;;;12.52;4.90;;;;;;;;;;5052021;28;20025;-77
2022/07/02 00:11:16;;;;;;;11.23;5.20;;;;;;;;;;5052067;28;20033;-78
2022/07/02 00:13:42;;;;;;;16.73;5.25;;;;;;;;;;5051841;28;20032;-78
2022/07/02 00:16:11;;;;;;;6.75;4.47;;;;;;;;;;5051930;28;20033;-78
2022/07/02 00:18:37;;;;;;;7.63;5.03;;;;;;;;;;5051915;28;20518;-78
2022/07/02 00:21:03;;;;;;;10.57;4.60;;;;;;;;;;5051877;28;20703;-77
2022/07/02 00:23:30;;;;;;;7.25;4.13;;;;;;;;;;5051851;28;20029;-77
2022/07/02 00:26:03;;;;;;;9.18;4.57;;;;;;;;;;5051955;28;20460;-78
2022/07/02 00:28:30;;;;;;;10.30;4.60;;;;;;;;;;5051769;28;20049;-77
2022/07/02 00:30:56;;;;;;;7.60;4.60;;;;;;;;;;5051828;28;20083;-77
2022/07/02 00:33:23;;;;;;;8.55;4.97;;;;;;;;;;5051809;28;20044;-78
2022/07/02 00:35:50;;;;;;;7.65;5.22;;;;;;;;;;5051585;28;20104;-77
2022/07/02 00:38:16;;;;;;;9.55;5.18;;;;;;;;;;5053605;28;20040;-78
2022/07/02 00:40:43;;;;;;;11.07;5.47;;;;;;;;;;5055058;28;20391;-77
2022/07/02 00:43:09;;;;;;;10.20;4.85;;;;;;;;;;5055179;28;20036;-78
2022/07/02 00:45:38;;;;;;;11.85;5.22;;;;;;;;;;5054871;28;20043;-78
2022/07/02 00:48:04;;;;;;;8.07;5.30;;;;;;;;;;5054910;28;20526;-78
2022/07/02 00:50:30;;;;;;;11.13;4.25;;;;;;;;;;5054791;28;20449;-77
2022/07/02 00:52:56;;;;;;;9.80;4.93;;;;;;;;;;5054937;28;20013;-78
2022/07/02 00:55:22;;;;;;;11.10;5.53;;;;;;;;;;5054739;28;20040;-77
2022/07/02 00:57:49;;;;;;;8.32;5.18;;;;;;;;;;5054736;28;20021;-77
2022/07/02 01:00:15;;;;;;;9.05;5.32;;;;;;;;;;5053455;28;20037;-77
2022/07/02 01:02:44;;;;;;;10.55;5.55;;;;;;;;;;5053416;28;20055;-77
2022/07/02 01:05:10;;;;;;;7.65;5.35;;;;;;;;;;5054542;28;20027;-77
2022/07/02 01:07:36;;;;;;;10.48;6.50;;;;;;;;;;5054553;28;20440;-77
2022/07/02 01:10:18;;;;;;;10.80;6.05;;;;;;;;;;5054445;28;20087;-78
2022/07/02 01:12:49;;;;;;;10.75;6.25;;;;;;;;;;5054494;28;20025;-78
2022/07/02 01:15:16;;;;;;;12.75;5.85;;;;;;;;;;5054281;28;20025;-78
2022/07/02 01:17:42;;;;;;;9.30;6.00;;;;;;;;;;5054374;28;20054;-78
2022/07/02 01:20:09;;;;;;;10.15;6.22;;;;;;;;;;5054418;28;20028;-78
2022/07/02 01:22:36;;;;;;;14.90;6.20;;;;;;;;;;5054357;28;20522;-78
2022/07/02 01:25:03;;;;;;;10.60;6.18;;;;;;;;;;5054287;28;20060;-77
2022/07/02 01:27:29;;;;;;;9.27;6.07;;;;;;;;;;5054329;28;20029;-78
2022/07/02 01:29:55;;;;;;;10.50;6.93;;;;;;;;;;5054191;28;20029;-77
2022/07/02 01:32:21;;;;;;;14.90;6.63;;;;;;;;;;5054126;28;20016;-78
2022/07/02 01:34:49;;;;;;;12.10;7.25;;;;;;;;;;5054373;28;20459;-78
2022/07/02 01:37:16;;;;;;;8.68;6.53;;;;;;;;;;5054232;28;20029;-78
2022/07/02 01:39:42;;;;;;;13.38;6.88;;;;;;;;;;5054149;28;20025;-78
2022/07/02 01:42:09;;;;;;;9.90;7.57;;;;;;;;;;5054266;28;20021;-78
2022/07/02 01:44:35;;;;;;;33.20;9.88;;;;;;;;;;5054045;28;20032;-77
2022/07/02 01:47:08;;;;;;;10.80;7.63;;;;;;;;;;5053983;28;20036;-78
2022/07/02 01:49:35;;;;;;;11.50;6.93;;;;;;;;;;5052836;28;20025;-77
2022/07/02 01:52:01;;;;;;;10.18;7.03;;;;;;;;;;5054040;28;20459;-78
2022/07/02 01:54:27;;;;;;;10.02;6.72;;;;;;;;;;5053748;28;20479;-77
2022/07/02 01:56:54;;;;;;;13.77;7.90;;;;;;;;;;5053765;28;20017;-77
2022/07/02 01:59:20;;;;;;;13.85;8.30;;;;;;;;;;5053620;28;20048;-77
2022/07/02 02:01:46;;;;;;;12.82;8.98;;;;;;;;;;5053753;28;20029;-77
2022/07/02 02:04:12;;;;;;;11.00;7.57;;;;;;;;;;5053752;28;20063;-77
2022/07/02 02:06:38;;;;;;;17.48;8.23;;;;;;;;;;5053829;28;20094;-78
2022/07/02 02:09:05;;;;;;;13.23;7.88;;;;;;;;;;5053698;28;20104;-77
2022/07/02 02:11:31;;;;;;;12.10;8.75;;;;;;;;;;5053617;28;20447;-77
2022/07/02 02:14:00;;;;;;;16.45;7.90;;;;;;;;;;5053364;28;20021;-78
2022/07/02 02:16:27;;;;;;;13.77;7.72;;;;;;;;;;5053432;28;20033;-78
2022/07/02 02:18:53;;;;;;;13.30;8.10;;;;;;;;;;5053367;28;20023;-78
2022/07/02 02:21:20;;;;;;;10.75;8.43;;;;;;;;;;5053521;28;20116;-78
2022/07/02 02:23:46;;;;;;;16.67;8.40;;;;;;;;;;5053400;28;20025;-78
2022/07/02 02:26:12;;;;;;;13.30;8.23;;;;;;;;;;5053660;28;20116;-77
2022/07/02 02:28:38;;;;;;;17.95;7.80;;;;;;;;;;5053409;28;20036;-78
2022/07/02 02:31:04;;;;;;;12.55;8.23;;;;;;;;;;5053200;28;20029;-78
2022/07/02 02:33:30;;;;;;;11.52;8.57;;;;;;;;;;5053200;28;20017;-78
2022/07/02 02:35:56;;;;;;;9.75;7.88;;;;;;;;;;5053154;28;20029;-77
2022/07/02 02:38:22;;;;;;;12.93;8.18;;;;;;;;;;5053163;28;20057;-78
2022/07/02 02:40:48;;;;;;;12.30;7.72;;;;;;;;;;5053154;28;20025;-78
2022/07/02 02:43:14;;;;;;;12.02;8.02;;;;;;;;;;5052915;28;20399;-78
2022/07/02 02:45:40;;;;;;;9.25;7.80;;;;;;;;;;5052927;28;20533;-78
2022/07/02 02:48:06;;;;;;;11.75;7.70;;;;;;;;;;5052810;28;20463;-78
2022/07/02 02:50:32;;;;;;;10.60;7.90;;;;;;;;;;5052720;28;20119;-77
2022/07/02 02:52:58;;;;;;;12.95;7.75;;;;;;;;;;5052886;28;20448;-78
2022/07/02 02:55:24;;;;;;;10.90;8.02;;;;;;;;;;5053000;28;20079;-78
2022/07/02 02:57:50;;;;;;;12.40;8.10;;;;;;;;;;5052575;28;20025;-78
2022/07/02 03:00:16;;;;;;;11.52;7.55;;;;;;;;;;5052819;28;20407;-77
2022/07/02 03:02:43;;;;;;;14.40;8.02;;;;;;;;;;5051520;28;20048;-77
2022/07/02 03:05:10;;;;;;;14.35;8.63;;;;;;;;;;5052902;28;20025;-77
2022/07/02 03:07:36;;;;;;;16.52;8.90;;;;;;;;;;5052792;28;20075;-78
2022/07/02 03:10:02;;;;;;;13.45;8.35;;;;;;;;;;5052458;28;20060;-78
2022/07/02 03:12:28;;;;;;;11.48;8.13;;;;;;;;;;5052656;28;20039;-78
2022/07/02 03:14:54;;;;;;;8.90;7.47;;;;;;;;;;5041148;28;20029;-77
2022/07/02 03:17:20;;;;;;;18.65;9.05;;;;;;;;;;5032671;28;20026;-78
2022/07/02 03:19:46;;;;;;;11.05;7.82;;;;;;;;;;5032626;28;20029;-78
2022/07/02 03:22:12;;;;;;;10.98;7.50;;;;;;;;;;5032576;28;20127;-78
2022/07/02 03:24:39;;;;;;;11.02;8.02;;;;;;;;;;5032634;28;20507;-78
2022/07/02 03:27:05;;;;;;;15.40;7.50;;;;;;;;;;5032592;28;20033;-77
2022/07/02 03:29:31;;;;;;;12.75;7.97;;;;;;;;;;5051020;28;20033;-78
2022/07/02 03:31:57;;;;;;;10.25;7.43;;;;;;;;;;5052411;28;20034;-78
2022/07/02 03:34:23;;;;;;;9.18;7.93;;;;;;;;;;5052282;28;20048;-78
2022/07/02 03:36:49;;;;;;;12.02;7.72;;;;;;;;;;5052361;28;20482;-78
2022/07/02 03:39:15;;;;;;;12.13;7.95;;;;;;;;;;5052362;28;20032;-78
2022/07/02 03:41:41;;;;;;;15.75;7.78;;;;;;;;;;5052357;28;20063;-78
2022/07/02 03:44:07;;;;;;;13.20;8.13;;;;;;;;;;5052185;28;20053;-78
2022/07/02 03:46:33;;;;;;;12.07;7.90;;;;;;;;;;5033254;28;20139;-77
2022/07/02 03:48:59;;;;;;;10.25;6.78;;;;;;;;;;5032214;28;20025;-77
2022/07/02 03:51:25;;;;;;;12.02;8.07;;;;;;;;;;5032296;28;20029;-78
2022/07/02 03:53:51;;;;;;;14.23;7.90;;;;;;;;;;5032289;28;20368;-77
2022/07/02 03:56:17;;;;;;;12.40;8.27;;;;;;;;;;5042485;28;20100;-78
2022/07/02 03:58:43;;;;;;;13.18;8.15;;;;;;;;;;5050865;28;20052;-78
2022/07/02 04:01:10;;;;;;;17.25;7.80;;;;;;;;;;5050556;28;20041;-79
2022/07/02 04:03:36;;;;;;;11.30;8.05;;;;;;;;;;5050586;28;20032;-79
2022/07/02 04:06:02;;;;;;;15.85;9.65;;;;;;;;;;5051969;28;20025;-79
2022/07/02 04:08:28;;;;;;;10.77;7.40;;;;;;;;;;5051600;28;20540;-79
2022/07/02 04:10:54;;;;;;;14.73;7.82;;;;;;;;;;5052020;28;20048;-79
2022/07/02 04:13:20;;;;;;;17.48;8.57;;;;;;;;;;5054420;28;20371;-79
2022/07/02 04:15:46;;;;;;;11.82;6.97;;;;;;;;;;5055602;28;20025;-79
2022/07/02 04:18:12;;;;;;;12.43;7.60;;;;;;;;;;5055790;28;20039;-79
2022/07/02 04:20:38;;;;;;;13.07;6.95;;;;;;;;;;5055708;28;20025;-79
2022/07/02 04:23:05;;;;;;;13.98;7.43;;;;;;;;;;5055254;28;20086;-78
2022/07/02 04:25:31;;;;;;;12.80;7.20;;;;;;;;;;5055604;28;20116;-79
2022/07/02 04:27:57;;;;;;;9.40;6.22;;;;;;;;;;5055294;28;20025;-79
2022/07/02 04:30:23;;;;;;;13.60;6.75;;;;;;;;;;5055302;28;20104;-79
2022/07/02 04:32:49;;;;;;;16.58;6.78;;;;;;;;;;5055288;28;20467;-79
2022/07/02 04:35:15;;;;;;;10.95;6.68;;;;;;;;;;5055295;28;20033;-79
2022/07/02 04:37:41;;;;;;;11.38;7.07;;;;;;;;;;5055185;28;20021;-79
2022/07/02 04:40:07;;;;;;;7.95;6.10;;;;;;;;;;5054043;28;20048;-79
2022/07/02 04:42:33;;;;;;;15.70;6.75;;;;;;;;;;5055350;28;20078;-78
2022/07/02 04:44:59;;;;;;;15.98;6.72;;;;;;;;;;5049118;28;20022;-79
2022/07/02 04:47:25;;;;;;;8.98;5.65;;;;;;;;;;5035249;28;20029;-79
2022/07/02 04:49:51;;;;;;;11.23;5.90;;;;;;;;;;5035148;28;20048;-79
2022/07/02 04:52:17;;;;;;;11.75;5.53;;;;;;;;;;5035131;28;20394;-79
2022/07/02 04:54:43;;;;;;;8.70;5.03;;;;;;;;;;5035278;28;20022;-79
2022/07/02 04:57:09;;;;;;;10.02;5.72;;;;;;;;;;5035183;28;20022;-79
2022/07/02 04:59:35;;;;;;;11.13;5.60;;;;;;;;;;5035107;28;20048;-79
2022/07/02 05:02:01;;;;;;;9.95;6.22;;;;;;;;;;5034883;28;20032;-79
2022/07/02 05:04:27;;;;;;;8.80;5.40;;;;;;;;;;5034713;28;20079;-79
2022/07/02 05:06:53;;;;;;;9.90;5.47;;;;;;;;;;5034839;28;20468;-79
2022/07/02 05:09:19;;;;;;;12.80;6.15;;;;;;;;;;5066865;28;20375;-79
2022/07/02 05:11:45;;;;;;;9.48;5.47;;;;;;;;;;5034910;28;20033;-79
2022/07/02 05:14:11;;;;;;;7.82;5.32;;;;;;;;;;5066555;28;20037;-79
2022/07/02 05:16:37;;;;;;;12.85;5.55;;;;;;;;;;5034689;28;20033;-78
2022/07/02 05:19:03;;;;;;;7.32;5.38;;;;;;;;;;5049777;28;20022;-79
2022/07/02 05:21:29;;;;;;;9.82;5.53;;;;;;;;;;5034563;28;20080;-78
2022/07/02 05:23:56;;;;;;;15.55;6.15;;;;;;;;;;5033117;28;20034;-78
2022/07/02 05:26:22;;;;;;;10.50;4.88;;;;;;;;;;5034793;28;20056;-78
2022/07/02 05:28:48;;;;;;;10.27;4.82;;;;;;;;;;5048760;28;20403;-79
2022/07/02 05:31:14;;;;;;;9.50;4.90;;;;;;;;;;5054212;28;20112;-78
2022/07/02 05:33:40;;;;;;;10.80;4.78;;;;;;;;;;5053063;28;20104;-78
2022/07/02 05:36:06;;;;;;;7.43;4.80;;;;;;;;;;5054102;28;20500;-79
2022/07/02 05:38:32;;;;;;;9.45;5.07;;;;;;;;;;5052749;28;20437;-78
2022/07/02 05:40:58;;;;;;;8.27;5.10;;;;;;;;;;5052849;28;20029;-78
2022/07/02 05:43:24;;;;;;;10.48;4.93;;;;;;;;;;5054119;28;20047;-79
2022/07/02 05:45:50;;;;;;;6.93;4.53;;;;;;;;;;5041048;28;20396;-79
2022/07/02 05:48:16;;;;;;;10.43;4.93;;;;;;;;;;5034125;28;20037;-79
2022/07/02 05:50:42;;;;;;;7.82;4.35;;;;;;;;;;5033922;28;20407;-77
2022/07/02 05:53:08;;;;;;;7.38;4.32;;;;;;;;;;5034055;28;20425;-79
2022/07/02 05:55:34;;;;;;;7.35;4.20;;;;;;;;;;5038118;28;20048;-79
2022/07/02 05:58:00;;;;;;;6.78;4.20;;;;;;;;;;5053558;28;20132;-79
2022/07/02 06:00:26;;;;;;;6.70;4.07;;;;;;;;;;5053773;28;20060;-79
2022/07/02 06:02:52;;;;;;;8.85;4.05;;;;;;;;;;5053634;28;20463;-79
2022/07/02 06:08:03;;;;;;;10.55;3.75;;;;;;;;;;5053677;28;20076;-79
2022/07/02 06:10:29;;;;;;;6.28;3.33;;;;;;;;;;5053550;28;20120;-79
2022/07/02 06:12:55;;;;;;;7.72;3.95;;;;;;;;;;5053650;28;20033;-79
2022/07/02 06:15:22;;;;;;;6.43;3.53;;;;;;;;;;5053293;28;20075;-79
2022/07/02 06:17:48;;;;;;;8.80;3.55;;;;;;;;;;5052126;28;20337;-79
2022/07/02 06:20:15;;;;;;;10.55;3.40;;;;;;;;;;5053287;28;20033;-79
2022/07/02 06:22:41;;;;;;;7.05;3.00;;;;;;;;;;5053395;28;20032;-79
2022/07/02 06:25:09;;;;;;;7.95;3.40;;;;;;;;;;5053465;28;20040;-79
2022/07/02 06:27:35;;;;;;;9.77;3.22;;;;;;;;;;5051724;28;20033;-79
2022/07/02 06:30:02;;;;;;;8.10;3.25;;;;;;;;;;5053031;28;20505;-78
2022/07/02 06:32:28;;;;;;;11.52;3.30;;;;;;;;;;5053229;28;20021;-79
2022/07/02 06:34:54;;;;;;;5.22;2.95;;;;;;;;;;5052854;28;20025;-79
2022/07/02 06:37:20;;;;;;;5.00;3.30;;;;;;;;;;5053147;28;20033;-78
2022/07/02 06:39:46;;;;;;;8.75;3.03;;;;;;;;;;5053137;28;20082;-78
2022/07/02 06:42:26;;;;;;;9.43;3.90;;;;;;;;;;5053147;28;20104;-79
2022/07/02 06:44:56;;;;;;;7.07;3.03;;;;;;;;;;5048330;28;20428;-79
2022/07/02 06:47:23;;;;;;;7.78;2.95;;;;;;;;;;5033093;28;20381;-79
2022/07/02 06:49:49;;;;;;;6.15;2.40;;;;;;;;;;5032811;28;20022;-78
2022/07/02 06:52:16;;;;;;;5.10;2.80;;;;;;;;;;5032823;28;20093;-79
2022/07/02 06:54:42;;;;;;;6.38;2.50;;;;;;;;;;5032970;28;20408;-79
2022/07/02 06:57:08;;;;;;;4.35;2.35;;;;;;;;;;5049772;28;20388;-78
2022/07/02 06:59:34;;;;;;;6.18;2.65;;;;;;;;;;5052348;28;20045;-79
2022/07/02 07:02:01;;;;;;;4.95;2.40;;;;;;;;;;5052615;28;20044;-79
2022/07/02 07:04:27;;;;;;;7.18;2.22;;;;;;;;;;5052557;28;20028;-79
2022/07/02 07:09:19;;;;;;;5.80;2.58;;;;;;;;;;5052729;28;20079;-79
2022/07/02 07:11:46;;;;;;;6.57;2.65;;;;;;;;;;5052333;28;20022;-78
2022/07/02 07:14:12;;;;;;;12.93;2.72;;;;;;;;;;5052124;28;20471;-79
2022/07/02 07:16:38;;;;;;;6.18;2.20;;;;;;;;;;5052256;28;20464;-78
2022/07/02 07:19:07;;;;;;;5.18;2.30;;;;;;;;;;5050851;28;20107;-78
2022/07/02 07:21:33;;;;;;;7.45;2.40;;;;;;;;;;5052533;28;20025;-80
2022/07/02 07:24:00;;;;;;;5.07;1.90;;;;;;;;;;5051999;28;20123;-77
2022/07/02 07:26:26;;;;;;;2.85;1.38;;;;;;;;;;5051704;28;20033;-78
2022/07/02 07:28:52;;;;;;;5.93;1.70;;;;;;;;;;5051479;28;20483;-79
2022/07/02 07:31:21;;;;;;;3.88;1.70;;;;;;;;;;5051556;28;20392;-77
2022/07/02 07:33:48;;;;;;;7.03;1.77;;;;;;;;;;5049230;28;20017;-78
2022/07/02 07:36:14;;;;;;;5.20;1.83;;;;;;;;;;5051624;28;20036;-78
2022/07/02 07:38:40;;;;;;;6.32;1.85;;;;;;;;;;5051776;28;20452;-79
2022/07/02 07:41:06;;;;;;;4.20;1.70;;;;;;;;;;5050444;28;20017;-79
2022/07/02 07:43:33;;;;;;;4.28;1.40;;;;;;;;;;5051667;28;20045;-79
2022/07/02 07:45:59;;;;;;;3.72;1.63;;;;;;;;;;5051319;28;20025;-79
2022/07/02 07:48:28;;;;;;;4.88;1.70;;;;;;;;;;5054200;28;20135;-79
2022/07/02 07:50:54;;;;;;;5.55;1.65;;;;;;;;;;5053703;28;20025;-79
2022/07/02 07:53:20;;;;;;;6.95;1.40;;;;;;;;;;5055529;28;20168;-79
2022/07/02 07:55:48;;;;;;;6.03;1.50;;;;;;;;;;5055279;28;20063;-78
2022/07/02 07:58:14;;;;;;;3.42;1.10;;;;;;;;;;5054960;28;20025;-76
2022/07/02 08:00:40;;;;;;;5.88;1.10;;;;;;;;;;5055602;28;20155;-78
2022/07/02 08:03:06;;;;;;;5.88;1.33;;;;;;;;;;5054367;28;20471;-77
2022/07/02 08:05:32;;;;;;;4.10;1.38;;;;;;;;;;5054604;28;20497;-77
2022/07/02 08:07:58;;;;;;;5.80;1.10;;;;;;;;;;5055193;28;20051;-77
2022/07/02 08:10:24;;;;;;;3.92;1.00;;;;;;;;;;5055555;28;20100;-77
2022/07/02 08:12:51;;;;;;;2.53;1.13;;;;;;;;;;5054500;28;20540;-77
2022/07/02 08:15:17;;;;;;;2.70;0.80;;;;;;;;;;5055144;28;20078;-77
2022/07/02 08:17:44;;;;;;;1.20;0.65;;;;;;;;;;5055540;28;20021;-77
2022/07/02 08:20:10;;;;;;;3.55;0.98;;;;;;;;;;5055337;28;20040;-76
2022/07/02 08:22:36;;;;;;;3.00;0.60;;;;;;;;;;5055583;28;20036;-77
2022/07/02 08:25:03;;;;;;;4.22;0.85;;;;;;;;;;5055246;28;20043;-78
2022/07/02 08:27:30;;;;;;;2.70;0.60;;;;;;;;;;5055617;28;20041;-77
2022/07/02 08:29:56;;;;;;;3.08;0.70;;;;;;;;;;5055027;28;20513;-77
2022/07/02 08:32:22;;;;;;;2.42;0.43;;;;;;;;;;5055134;28;20029;-77
2022/07/02 08:34:48;;;;;;;4.40;0.60;;;;;;;;;;5054916;28;20025;-77
2022/07/02 08:37:15;;;;;;;2.47;0.50;;;;;;;;;;5055067;28;20021;-77
2022/07/02 08:39:41;;;;;;;5.78;0.70;;;;;;;;;;5054732;28;20029;-76
2022/07/02 08:42:09;;;;;;;1.98;0.32;;;;;;;;;;5055033;28;20024;-77
2022/07/02 08:44:36;;;;;;;2.05;0.50;;;;;;;;;;5054962;28;20055;-77
2022/07/02 08:47:03;;;;;;;1.90;0.40;;;;;;;;;;5055068;28;20104;-77
2022/07/02 08:49:31;;;;;;;4.10;0.90;;;;;;;;;;5054873;28;20036;-77
2022/07/02 08:52:04;;;;;;;2.13;0.50;;;;;;;;;;5053303;28;20352;-77
2022/07/02 08:54:33;;;;;;;4.15;0.70;;;;;;;;;;5054496;28;20029;-76
2022/07/02 08:57:01;;;;;;;2.13;0.50;;;;;;;;;;5047848;28;20116;-76
2022/07/02 08:59:28;;;;;;;1.73;0.50;;;;;;;;;;5054022;28;20106;-78
2022/07/02 09:01:54;;;;;;;3.60;0.60;;;;;;;;;;5054256;28;20051;-77
2022/07/02 09:04:21;;;;;;;2.90;0.82;;;;;;;;;;5054587;28;20068;-77
2022/07/02 09:06:47;;;;;;;2.05;0.50;;;;;;;;;;5054750;28;20025;-77
2022/07/02 09:09:13;;;;;;;5.80;0.55;;;;;;;;;;5054720;28;20036;-77
2022/07/02 09:11:40;;;;;;;3.75;0.85;;;;;;;;;;5054737;28;20436;-77
2022/07/02 09:14:08;;;;;;;2.00;0.70;;;;;;;;;;5052978;28;20036;-77
2022/07/02 09:16:34;;;;;;;2.95;0.75;;;;;;;;;;5054402;28;20029;-78
2022/07/02 09:19:00;;;;;;;0.85;0.45;;;;;;;;;;5054347;28;20029;-77
2022/07/02 09:21:26;;;;;;;3.40;0.40;;;;;;;;;;5054302;28;20024;-77
2022/07/02 09:23:52;;;;;;;3.20;0.80;;;;;;;;;;5054421;28;20048;-77
2022/07/02 09:26:19;;;;;;;3.17;0.70;;;;;;;;;;5053890;28;20052;-76
2022/07/02 09:28:55;;;;;;;2.97;0.52;;;;;;;;;;5054141;28;20029;-77
2022/07/02 09:31:21;;;;;;;2.42;0.70;;;;;;;;;;5054305;28;20112;-76
2022/07/02 09:33:48;;;;;;;1.65;0.57;;;;;;;;;;5054116;28;20025;-77
2022/07/02 09:36:14;;;;;;;3.28;0.50;;;;;;;;;;5054133;28;20021;-77
2022/07/02 09:38:41;;;;;;;1.52;0.40;;;;;;;;;;5054215;28;20409;-78
2022/07/02 09:41:11;;;;;;;0.82;0.35;;;;;;;;;;5053824;28;20032;-77
2022/07/02 09:43:38;;;;;;;1.20;0.47;;;;;;;;;;5053930;28;20029;-77
2022/07/02 09:46:13;;;;;;;3.15;0.52;;;;;;;;;;5053171;28;20063;-77
2022/07/02 09:48:39;;;;;;;4.65;0.40;;;;;;;;;;5053181;28;20076;-77
2022/07/02 09:51:05;;;;;;;3.88;0.63;;;;;;;;;;5053270;28;20040;-77
2022/07/02 09:53:32;;;;;;;3.15;0.47;;;;;;;;;;5053537;28;20036;-78
2022/07/02 09:55:58;;;;;;;4.85;1.00;;;;;;;;;;5047539;28;20373;-77
2022/07/02 09:58:25;;;;;;;4.35;0.65;;;;;;;;;;5052657;28;20405;-77
2022/07/02 10:00:51;;;;;;;3.10;0.77;;;;;;;;;;5053171;28;20049;-77
2022/07/02 10:03:17;;;;;;;3.08;0.50;;;;;;;;;;5052637;28;20379;-77
2022/07/02 10:05:45;;;;;;;2.58;1.00;;;;;;;;;;5052466;28;20037;-78
2022/07/02 10:08:12;;;;;;;5.07;0.68;;;;;;;;;;5053090;28;20025;-77
2022/07/02 10:10:38;;;;;;;3.45;0.57;;;;;;;;;;5048351;28;20088;-78
2022/07/02 10:13:15;;;;;;;2.75;0.60;;;;;;;;;;5052400;28;20013;-77
2022/07/02 10:16:01;;;;;;;2.60;0.60;;;;;;;;;;5051287;28;20025;-74
2022/07/02 10:18:29;;;;;;;2.60;0.70;;;;;;;;;;5051447;28;20083;-75
2022/07/02 10:20:56;;;;;;;3.08;0.85;;;;;;;;;;5052322;28;20360;-75
2022/07/02 10:23:23;;;;;;;5.72;1.10;;;;;;;;;;5052656;28;20033;-78
2022/07/02 10:25:50;;;;;;;4.95;0.88;;;;;;;;;;5052601;28;20068;-77
2022/07/02 10:28:16;;;;;;;1.85;0.52;;;;;;;;;;5052348;28;20386;-76
2022/07/02 10:30:43;;;;;;;4.50;0.80;;;;;;;;;;5052334;28;20518;-76
2022/07/02 10:33:28;;;;;;;2.10;0.70;;;;;;;;;;5052432;28;20025;-76
2022/07/02 10:35:55;;;;;;;5.22;0.90;;;;;;;;;;5051766;28;20032;-76
2022/07/02 10:38:38;;;;;;;4.53;1.08;;;;;;;;;;5051791;28;20031;-77
2022/07/02 10:41:04;;;;;;;4.68;1.10;;;;;;;;;;5052269;28;20095;-76
2022/07/02 10:43:34;;;;;;;3.08;0.80;;;;;;;;;;5051912;28;20025;-74
2022/07/02 10:46:11;;;;;;;4.78;0.88;;;;;;;;;;5051448;28;20033;-75
2022/07/02 10:48:50;;;;;;;4.85;1.08;;;;;;;;;;5051912;28;20032;-75
2022/07/02 10:51:19;;;;;;;4.00;1.33;;;;;;;;;;5051996;28;20021;-75
2022/07/02 10:53:52;;;;;;;2.53;0.70;;;;;;;;;;5051956;28;20074;-78
2022/07/02 10:56:19;;;;;;;2.00;0.85;;;;;;;;;;5051817;28;20013;-78
2022/07/02 10:58:45;;;;;;;5.63;0.75;;;;;;;;;;5051740;28;20045;-75
2022/07/02 11:01:14;;;;;;;2.47;0.60;;;;;;;;;;5051831;28;20087;-76
2022/07/02 11:03:52;;;;;;;3.10;0.70;;;;;;;;;;5052251;28;20037;-79
2022/07/02 11:06:22;;;;;;;4.00;0.80;;;;;;;;;;5051189;28;20083;-78
2022/07/02 11:08:52;;;;;;;4.00;0.68;;;;;;;;;;5048616;28;20032;-78
2022/07/02 11:11:22;;;;;;;4.97;0.77;;;;;;;;;;5050955;28;20044;-81
2022/07/02 11:13:50;;;;;;;2.20;0.68;;;;;;;;;;5049655;28;20026;-78
2022/07/02 11:16:20;;;;;;;4.57;0.75;;;;;;;;;;5052842;28;20096;-78
2022/07/02 11:18:47;;;;;;;2.88;1.10;;;;;;;;;;5052183;28;20082;-79
2022/07/02 11:21:13;;;;;;;3.22;0.77;;;;;;;;;;5053160;28;20028;-79
2022/07/02 11:23:40;;;;;;;1.63;0.50;;;;;;;;;;5050079;28;20021;-78
2022/07/02 11:26:09;;;;;;;4.75;0.68;;;;;;;;;;5050320;28;20551;-80
2022/07/02 11:28:38;;;;;;;2.67;0.60;;;;;;;;;;5051779;28;20037;-77
2022/07/02 11:31:05;;;;;;;4.22;0.70;;;;;;;;;;5050303;28;20029;-77
2022/07/02 11:33:31;;;;;;;4.93;0.57;;;;;;;;;;5051726;28;20021;-77
2022/07/02 11:35:57;;;;;;;2.88;0.73;;;;;;;;;;5051651;28;20025;-77
2022/07/02 11:38:24;;;;;;;6.90;0.70;;;;;;;;;;5051433;28;20021;-77
2022/07/02 11:40:50;;;;;;;2.33;0.57;;;;;;;;;;5051572;28;20047;-77
2022/07/02 11:43:16;;;;;;;3.13;0.68;;;;;;;;;;5051738;28;20036;-77
2022/07/02 11:45:46;;;;;;;7.07;0.80;;;;;;;;;;5051591;28;20089;-77
2022/07/02 11:48:22;;;;;;;6.82;0.95;;;;;;;;;;5051073;28;20056;-78
2022/07/02 11:50:58;;;;;;;3.85;0.80;;;;;;;;;;5051263;28;20028;-77
2022/07/02 11:53:24;;;;;;;3.78;0.93;;;;;;;;;;5051700;28;20021;-77
2022/07/02 11:55:50;;;;;;;4.03;0.88;;;;;;;;;;5051483;28;20036;-77
2022/07/02 11:58:17;;;;;;;2.95;0.50;;;;;;;;;;5051527;28;20040;-77
2022/07/02 12:00:43;;;;;;;2.92;0.68;;;;;;;;;;5051495;28;20037;-76
2022/07/02 12:03:10;;;;;;;3.05;0.68;;;;;;;;;;5051571;28;20112;-77
2022/07/02 12:05:37;;;;;;;3.67;0.82;;;;;;;;;;5051181;28;20116;-77
2022/07/02 12:08:04;;;;;;;2.10;0.82;;;;;;;;;;5051307;28;20024;-76
2022/07/02 12:10:38;;;;;;;5.32;0.75;;;;;;;;;;5051380;28;20036;-76
2022/07/02 12:13:10;;;;;;;3.55;0.60;;;;;;;;;;5051318;28;20017;-76
2022/07/02 12:15:47;;;;;;;3.90;0.70;;;;;;;;;;5046989;28;20051;-76
2022/07/02 12:18:19;;;;;;;5.93;0.90;;;;;;;;;;5051389;28;20021;-76
2022/07/02 12:20:46;;;;;;;5.18;0.70;;;;;;;;;;5051288;28;20029;-76
2022/07/02 12:23:12;;;;;;;3.13;0.60;;;;;;;;;;5051331;28;20025;-75
2022/07/02 12:25:48;;;;;;;3.60;0.73;;;;;;;;;;5051488;28;20028;-76
2022/07/02 12:31:04;;;;;;;4.47;0.75;;;;;;;;;;5051254;28;20375;-78
2022/07/02 12:33:31;;;;;;;3.28;0.80;;;;;;;;;;5052176;28;20036;-77
2022/07/02 12:36:00;;;;;;;3.08;0.60;;;;;;;;;;5054870;28;20375;-77
2022/07/02 12:38:27;;;;;;;4.45;0.60;;;;;;;;;;5054899;28;20051;-77
2022/07/02 12:41:04;;;;;;;2.78;0.60;;;;;;;;;;5054795;28;20037;-77
2022/07/02 12:43:30;;;;;;;2.45;0.68;;;;;;;;;;5054841;28;20356;-77
2022/07/02 12:46:06;;;;;;;5.07;0.80;;;;;;;;;;5054487;28;20036;-77
2022/07/02 12:48:32;;;;;;;4.45;0.70;;;;;;;;;;5053398;28;20452;-77
2022/07/02 12:51:01;;;;;;;3.28;1.30;;;;;;;;;;5054460;28;20029;-77
2022/07/02 12:53:28;;;;;;;3.97;0.70;;;;;;;;;;5054582;28;20669;-77
2022/07/02 12:56:01;;;;;;;3.85;0.60;;;;;;;;;;5054550;28;20056;-77
2022/07/02 12:58:28;;;;;;;4.82;0.63;;;;;;;;;;5054429;28;20033;-76
2022/07/02 13:00:54;;;;;;;4.05;0.55;;;;;;;;;;5054419;28;20025;-76
2022/07/02 13:03:21;;;;;;;3.55;0.90;;;;;;;;;;5053107;28;20114;-76
2022/07/02 13:05:52;;;;;;;1.85;0.43;;;;;;;;;;5054046;28;20082;-77
2022/07/02 13:08:20;;;;;;;6.25;0.70;;;;;;;;;;5054358;28;20032;-76
2022/07/02 13:10:46;;;;;;;3.90;0.70;;;;;;;;;;5054301;28;20410;-77
2022/07/02 13:13:13;;;;;;;3.15;0.70;;;;;;;;;;5054121;28;20025;-77
2022/07/02 13:15:39;;;;;;;1.95;0.57;;;;;;;;;;5054007;28;20491;-76
2022/07/02 13:18:05;;;;;;;10.80;0.77;;;;;;;;;;5054165;28;20021;-77
2022/07/02 13:20:31;;;;;;;2.58;0.60;;;;;;;;;;5053941;28;20025;-77
2022/07/02 13:22:57;;;;;;;2.60;0.52;;;;;;;;;;5048405;28;20037;-77
2022/07/02 13:25:23;;;;;;;3.05;0.77;;;;;;;;;;5067534;28;20115;-76
2022/07/02 13:27:50;;;;;;;3.10;0.60;;;;;;;;;;5073231;28;20073;-78
2022/07/02 13:30:17;;;;;;;4.03;0.60;;;;;;;;;;5072622;28;20036;-77
2022/07/02 13:32:44;;;;;;;1.73;0.82;;;;;;;;;;5073827;28;20028;-77
2022/07/02 13:35:11;;;;;;;2.75;0.80;;;;;;;;;;5073841;28;20069;-77
2022/07/02 13:37:38;;;;;;;1.65;0.65;;;;;;;;;;5074062;28;20089;-77
2022/07/02 13:40:05;;;;;;;2.50;0.60;;;;;;;;;;5072442;28;20040;-76
2022/07/02 13:42:31;;;;;;;3.38;0.70;;;;;;;;;;5073775;28;20482;-77
2022/07/02 13:44:57;;;;;;;1.48;0.40;;;;;;;;;;5066768;28;20139;-76
2022/07/02 13:47:23;;;;;;;1.02;0.30;;;;;;;;;;5053543;28;20494;-76
2022/07/02 13:49:50;;;;;;;2.92;0.38;;;;;;;;;;5053606;28;20038;-76
2022/07/02 13:52:16;;;;;;;1.55;0.40;;;;;;;;;;5053407;28;20100;-76
2022/07/02 13:54:42;;;;;;;2.17;0.50;;;;;;;;;;5053514;28;20078;-76
2022/07/02 13:57:08;;;;;;;6.82;0.70;;;;;;;;;;5053373;28;20402;-76
2022/07/02 13:59:34;;;;;;;4.25;0.38;;;;;;;;;;5053311;28;20041;-76
2022/07/02 14:02:00;;;;;;;3.90;0.52;;;;;;;;;;5053426;28;20036;-76
2022/07/02 14:04:27;;;;;;;4.00;0.60;;;;;;;;;;5053045;28;20028;-76
2022/07/02 14:06:53;;;;;;;2.42;0.50;;;;;;;;;;5053008;28;20041;-76
2022/07/02 14:09:19;;;;;;;1.80;0.52;;;;;;;;;;5053046;28;20039;-76
2022/07/02 14:11:45;;;;;;;2.85;0.50;;;;;;;;;;5053117;28;20032;-76
2022/07/02 14:14:11;;;;;;;3.25;0.60;;;;;;;;;;5048765;28;20052;-76
2022/07/02 14:16:37;;;;;;;3.95;0.43;;;;;;;;;;5053055;28;20033;-76
2022/07/02 14:19:03;;;;;;;6.72;1.00;;;;;;;;;;5052663;28;20025;-79
2022/07/02 14:21:29;;;;;;;2.60;0.45;;;;;;;;;;5047314;28;20056;-79
2022/07/02 14:23:56;;;;;;;1.70;0.50;;;;;;;;;;5054531;28;20051;-79
2022/07/02 14:26:22;;;;;;;5.32;0.50;;;;;;;;;;5053723;28;20371;-79
2022/07/02 14:28:48;;;;;;;2.30;0.57;;;;;;;;;;5053832;28;20490;-79
2022/07/02 14:31:14;;;;;;;2.78;0.65;;;;;;;;;;5056734;28;20017;-79
2022/07/02 14:33:40;;;;;;;2.55;0.50;;;;;;;;;;5057153;28;20383;-79
2022/07/02 14:36:06;;;;;;;1.45;0.40;;;;;;;;;;5063332;28;20013;-79
2022/07/02 14:38:32;;;;;;;2.75;0.60;;;;;;;;;;5056586;28;20735;-80
2022/07/02 14:43:43;;;;;;;3.97;0.50;;;;;;;;;;5054232;28;20044;-79
2022/07/02 14:48:48;;;;;;;1.85;0.70;;;;;;;;;;5050996;28;20036;-79
2022/07/02 14:51:14;;;;;;;3.45;0.80;;;;;;;;;;5053210;28;20025;-79